sensor_id;sensor_type;location;lat;lon;timestamp;temperature;humidity
11639;DHT22;5875;35.940;126.892;2024-02-26T00:02:24;5.30;99.90
11639;DHT22;5875;35.940;126.892;2024-02-26T00:04:51;5.30;99.90
11639;DHT22;5875;35.940;126.892;2024-02-26T00:07:18;5.90;99.90
11639;DHT22;5875;35.940;126.892;2024-02-26T00:09:45;6.50;99.90
11639;DHT22;5875;35.940;126.892;2024-02-26T00:12:12;6.90;99.90
11639;DHT22;5875;35.940;126.892;2024-02-26T00:14:39;7.50;99.90
11639;DHT22;5875;35.940;126.892;2024-02-26T00:17:07;7.80;99.90
11639;DHT22;5875;35.940;126.892;2024-02-26T00:19:35;8.10;99.90
11639;DHT22;5875;35.940;126.892;2024-02-26T00:22:02;8.30;99.90
11639;DHT22;5875;35.940;126.892;2024-02-26T00:24:30;8.60;99.90
11639;DHT22;5875;35.940;126.892;2024-02-26T00:27:00;8.90;99.90
11639;DHT22;5875;35.940;126.892;2024-02-26T00:29:27;9.10;99.90
11639;DHT22;5875;35.940;126.892;2024-02-26T00:31:54;9.60;99.90
11639;DHT22;5875;35.940;126.892;2024-02-26T00:34:21;10.10;99.90
11639;DHT22;5875;35.940;126.892;2024-02-26T00:36:48;10.60;99.90
11639;DHT22;5875;35.940;126.892;2024-02-26T00:39:15;10.60;99.90
11639;DHT22;5875;35.940;126.892;2024-02-26T00:41:42;10.50;99.90
11639;DHT22;5875;35.940;126.892;2024-02-26T00:44:09;10.60;99.90
11639;DHT22;5875;35.940;126.892;2024-02-26T00:46:38;10.70;99.90
11639;DHT22;5875;35.940;126.892;2024-02-26T00:49:05;11.00;99.90
11639;DHT22;5875;35.940;126.892;2024-02-26T00:51:32;11.10;99.90
11639;DHT22;5875;35.940;126.892;2024-02-26T00:53:59;11.40;99.90
11639;DHT22;5875;35.940;126.892;2024-02-26T00:56:26;11.60;99.90
11639;DHT22;5875;35.940;126.892;2024-02-26T00:58:56;11.90;99.90
11639;DHT22;5875;35.940;126.892;2024-02-26T01:01:23;12.60;99.90
11639;DHT22;5875;35.940;126.892;2024-02-26T01:03:50;12.70;99.90
11639;DHT22;5875;35.940;126.892;2024-02-26T01:06:17;12.60;99.90
11639;DHT22;5875;35.940;126.892;2024-02-26T01:08:45;12.90;99.90
11639;DHT22;5875;35.940;126.892;2024-02-26T01:11:12;13.40;99.90
11639;DHT22;5875;35.940;126.892;2024-02-26T01:13:39;13.50;99.90
11639;DHT22;5875;35.940;126.892;2024-02-26T01:16:06;13.90;99.90
11639;DHT22;5875;35.940;126.892;2024-02-26T01:18:33;13.90;99.90
11639;DHT22;5875;35.940;126.892;2024-02-26T01:21:00;14.10;99.90
11639;DHT22;5875;35.940;126.892;2024-02-26T01:23:27;14.30;99.90
11639;DHT22;5875;35.940;126.892;2024-02-26T01:25:54;14.40;99.90
11639;DHT22;5875;35.940;126.892;2024-02-26T01:28:22;14.70;99.90
11639;DHT22;5875;35.940;126.892;2024-02-26T01:30:49;14.90;99.90
11639;DHT22;5875;35.940;126.892;2024-02-26T01:33:16;15.20;99.90
11639;DHT22;5875;35.940;126.892;2024-02-26T01:35:43;15.20;99.90
11639;DHT22;5875;35.940;126.892;2024-02-26T01:38:10;15.50;99.90
11639;DHT22;5875;35.940;126.892;2024-02-26T01:40:37;15.40;99.90
11639;DHT22;5875;35.940;126.892;2024-02-26T01:43:04;15.60;99.90
11639;DHT22;5875;35.940;126.892;2024-02-26T01:45:31;15.70;99.90
11639;DHT22;5875;35.940;126.892;2024-02-26T01:47:59;15.80;99.90
11639;DHT22;5875;35.940;126.892;2024-02-26T01:50:27;15.70;99.90
11639;DHT22;5875;35.940;126.892;2024-02-26T01:52:55;15.90;99.90
11639;DHT22;5875;35.940;126.892;2024-02-26T01:55:24;16.00;99.90
11639;DHT22;5875;35.940;126.892;2024-02-26T01:57:54;15.70;99.90
11639;DHT22;5875;35.940;126.892;2024-02-26T02:00:25;16.10;99.90
11639;DHT22;5875;35.940;126.892;2024-02-26T02:02:52;16.40;99.90
11639;DHT22;5875;35.940;126.892;2024-02-26T02:05:21;16.00;99.90
11639;DHT22;5875;35.940;126.892;2024-02-26T02:07:49;16.00;99.90
11639;DHT22;5875;35.940;126.892;2024-02-26T02:10:17;16.00;99.90
11639;DHT22;5875;35.940;126.892;2024-02-26T02:12:49;16.30;99.90
11639;DHT22;5875;35.940;126.892;2024-02-26T02:15:16;16.40;99.90
11639;DHT22;5875;35.940;126.892;2024-02-26T02:17:44;16.20;99.90
11639;DHT22;5875;35.940;126.892;2024-02-26T02:20:18;15.90;99.90
11639;DHT22;5875;35.940;126.892;2024-02-26T02:22:46;15.70;99.90
11639;DHT22;5875;35.940;126.892;2024-02-26T02:25:14;15.80;99.90
11639;DHT22;5875;35.940;126.892;2024-02-26T02:27:41;15.90;99.90
11639;DHT22;5875;35.940;126.892;2024-02-26T02:30:10;16.00;99.90
11639;DHT22;5875;35.940;126.892;2024-02-26T02:32:42;15.70;99.90
11639;DHT22;5875;35.940;126.892;2024-02-26T02:35:10;16.00;99.90
11639;DHT22;5875;35.940;126.892;2024-02-26T02:37:37;15.70;99.90
11639;DHT22;5875;35.940;126.892;2024-02-26T02:40:07;16.00;99.90
11639;DHT22;5875;35.940;126.892;2024-02-26T02:42:35;16.30;99.90
11639;DHT22;5875;35.940;126.892;2024-02-26T02:45:02;16.40;99.90
11639;DHT22;5875;35.940;126.892;2024-02-26T02:47:29;16.50;94.40
11639;DHT22;5875;35.940;126.892;2024-02-26T02:49:56;16.30;82.30
11639;DHT22;5875;35.940;126.892;2024-02-26T02:52:23;15.90;59.30
11639;DHT22;5875;35.940;126.892;2024-02-26T02:54:50;15.60;50.50
11639;DHT22;5875;35.940;126.892;2024-02-26T02:57:17;15.70;46.60
11639;DHT22;5875;35.940;126.892;2024-02-26T02:59:44;15.90;41.70
11639;DHT22;5875;35.940;126.892;2024-02-26T03:02:12;15.90;34.10
11639;DHT22;5875;35.940;126.892;2024-02-26T03:04:39;15.90;30.90
11639;DHT22;5875;35.940;126.892;2024-02-26T03:07:06;15.90;26.90
11639;DHT22;5875;35.940;126.892;2024-02-26T03:09:33;15.60;18.70
11639;DHT22;5875;35.940;126.892;2024-02-26T03:12:00;15.90;20.20
11639;DHT22;5875;35.940;126.892;2024-02-26T03:14:27;15.90;16.60
11639;DHT22;5875;35.940;126.892;2024-02-26T03:16:55;15.70;17.50
11639;DHT22;5875;35.940;126.892;2024-02-26T03:19:22;15.60;10.50
11639;DHT22;5875;35.940;126.892;2024-02-26T03:21:49;15.90;11.50
11639;DHT22;5875;35.940;126.892;2024-02-26T03:24:19;15.60;4.90
11639;DHT22;5875;35.940;126.892;2024-02-26T03:26:47;15.90;6.70
11639;DHT22;5875;35.940;126.892;2024-02-26T03:29:14;15.50;1.00
11639;DHT22;5875;35.940;126.892;2024-02-26T03:31:41;15.20;1.00
11639;DHT22;5875;35.940;126.892;2024-02-26T03:34:08;15.40;1.80
11639;DHT22;5875;35.940;126.892;2024-02-26T03:36:35;15.20;1.00
11639;DHT22;5875;35.940;126.892;2024-02-26T03:39:05;15.10;1.00
11639;DHT22;5875;35.940;126.892;2024-02-26T03:41:34;14.80;1.00
11639;DHT22;5875;35.940;126.892;2024-02-26T03:44:02;14.90;1.00
11639;DHT22;5875;35.940;126.892;2024-02-26T03:46:29;15.10;1.00
11639;DHT22;5875;35.940;126.892;2024-02-26T03:48:56;15.00;1.00
11639;DHT22;5875;35.940;126.892;2024-02-26T03:51:23;14.80;1.00
11639;DHT22;5875;35.940;126.892;2024-02-26T03:53:50;14.60;1.00
11639;DHT22;5875;35.940;126.892;2024-02-26T03:56:17;14.70;1.00
11639;DHT22;5875;35.940;126.892;2024-02-26T03:58:44;14.80;1.00
11639;DHT22;5875;35.940;126.892;2024-02-26T04:01:11;14.80;1.00
11639;DHT22;5875;35.940;126.892;2024-02-26T04:03:39;14.80;1.00
11639;DHT22;5875;35.940;126.892;2024-02-26T04:06:09;14.80;1.00
11639;DHT22;5875;35.940;126.892;2024-02-26T04:08:46;14.80;1.00
11639;DHT22;5875;35.940;126.892;2024-02-26T04:11:13;15.20;1.00
11639;DHT22;5875;35.940;126.892;2024-02-26T04:13:46;14.90;1.00
11639;DHT22;5875;35.940;126.892;2024-02-26T04:16:16;15.10;1.00
11639;DHT22;5875;35.940;126.892;2024-02-26T04:18:43;15.20;1.00
11639;DHT22;5875;35.940;126.892;2024-02-26T04:21:10;15.20;1.00
11639;DHT22;5875;35.940;126.892;2024-02-26T04:23:37;14.80;1.00
11639;DHT22;5875;35.940;126.892;2024-02-26T04:26:05;15.00;1.00
11639;DHT22;5875;35.940;126.892;2024-02-26T04:28:32;14.80;1.00
11639;DHT22;5875;35.940;126.892;2024-02-26T04:30:59;14.70;1.00
11639;DHT22;5875;35.940;126.892;2024-02-26T04:33:26;14.90;1.00
11639;DHT22;5875;35.940;126.892;2024-02-26T04:35:53;14.80;1.00
11639;DHT22;5875;35.940;126.892;2024-02-26T04:38:20;14.70;1.00
11639;DHT22;5875;35.940;126.892;2024-02-26T04:40:48;15.10;1.00
11639;DHT22;5875;35.940;126.892;2024-02-26T04:43:15;14.90;1.00
11639;DHT22;5875;35.940;126.892;2024-02-26T04:45:44;14.80;1.00
11639;DHT22;5875;35.940;126.892;2024-02-26T04:48:11;14.80;1.00
11639;DHT22;5875;35.940;126.892;2024-02-26T04:50:38;14.60;1.00
11639;DHT22;5875;35.940;126.892;2024-02-26T04:53:06;14.30;1.00
11639;DHT22;5875;35.940;126.892;2024-02-26T04:55:33;14.10;1.00
11639;DHT22;5875;35.940;126.892;2024-02-26T04:58:00;14.00;1.00
11639;DHT22;5875;35.940;126.892;2024-02-26T05:00:27;14.00;1.00
11639;DHT22;5875;35.940;126.892;2024-02-26T05:02:57;13.80;1.00
11639;DHT22;5875;35.940;126.892;2024-02-26T05:05:24;13.80;1.00
11639;DHT22;5875;35.940;126.892;2024-02-26T05:07:51;13.80;1.00
11639;DHT22;5875;35.940;126.892;2024-02-26T05:10:18;13.80;1.00
11639;DHT22;5875;35.940;126.892;2024-02-26T05:12:45;13.70;1.00
11639;DHT22;5875;35.940;126.892;2024-02-26T05:15:13;13.50;1.00
11639;DHT22;5875;35.940;126.892;2024-02-26T05:17:44;13.50;1.00
11639;DHT22;5875;35.940;126.892;2024-02-26T05:20:12;13.60;1.00
11639;DHT22;5875;35.940;126.892;2024-02-26T05:22:39;13.80;1.00
11639;DHT22;5875;35.940;126.892;2024-02-26T05:25:06;13.90;1.00
11639;DHT22;5875;35.940;126.892;2024-02-26T05:27:33;13.70;1.00
11639;DHT22;5875;35.940;126.892;2024-02-26T05:30:00;13.90;1.00
11639;DHT22;5875;35.940;126.892;2024-02-26T05:32:27;13.70;1.00
11639;DHT22;5875;35.940;126.892;2024-02-26T05:34:57;13.50;1.00
11639;DHT22;5875;35.940;126.892;2024-02-26T05:37:24;13.20;1.00
11639;DHT22;5875;35.940;126.892;2024-02-26T05:39:52;13.10;1.00
11639;DHT22;5875;35.940;126.892;2024-02-26T05:42:19;13.50;1.00
11639;DHT22;5875;35.940;126.892;2024-02-26T05:44:47;13.60;1.00
11639;DHT22;5875;35.940;126.892;2024-02-26T05:47:14;14.00;1.00
11639;DHT22;5875;35.940;126.892;2024-02-26T05:49:41;14.10;1.00
11639;DHT22;5875;35.940;126.892;2024-02-26T05:52:08;14.10;1.00
11639;DHT22;5875;35.940;126.892;2024-02-26T05:54:35;14.10;1.00
11639;DHT22;5875;35.940;126.892;2024-02-26T05:57:02;14.10;1.00
11639;DHT22;5875;35.940;126.892;2024-02-26T05:59:29;13.90;1.00
11639;DHT22;5875;35.940;126.892;2024-02-26T06:01:57;13.80;1.00
11639;DHT22;5875;35.940;126.892;2024-02-26T06:04:24;13.90;1.00
11639;DHT22;5875;35.940;126.892;2024-02-26T06:06:51;13.90;1.00
11639;DHT22;5875;35.940;126.892;2024-02-26T06:09:18;13.80;1.00
11639;DHT22;5875;35.940;126.892;2024-02-26T06:11:45;13.90;1.00
11639;DHT22;5875;35.940;126.892;2024-02-26T06:14:12;13.90;1.00
11639;DHT22;5875;35.940;126.892;2024-02-26T06:16:40;13.80;1.00
11639;DHT22;5875;35.940;126.892;2024-02-26T06:19:10;13.70;1.00
11639;DHT22;5875;35.940;126.892;2024-02-26T06:21:37;13.60;1.00
11639;DHT22;5875;35.940;126.892;2024-02-26T06:24:05;13.70;1.00
11639;DHT22;5875;35.940;126.892;2024-02-26T06:26:32;13.20;1.00
11639;DHT22;5875;35.940;126.892;2024-02-26T06:29:00;13.20;1.00
11639;DHT22;5875;35.940;126.892;2024-02-26T06:31:27;13.30;1.00
11639;DHT22;5875;35.940;126.892;2024-02-26T06:33:54;13.40;1.00
11639;DHT22;5875;35.940;126.892;2024-02-26T06:36:24;13.80;1.00
11639;DHT22;5875;35.940;126.892;2024-02-26T06:38:52;13.70;1.00
11639;DHT22;5875;35.940;126.892;2024-02-26T06:41:20;13.60;1.00
11639;DHT22;5875;35.940;126.892;2024-02-26T06:43:54;13.60;1.00
11639;DHT22;5875;35.940;126.892;2024-02-26T06:46:21;13.40;1.00
11639;DHT22;5875;35.940;126.892;2024-02-26T06:48:49;13.20;1.00
11639;DHT22;5875;35.940;126.892;2024-02-26T06:51:16;13.10;1.00
11639;DHT22;5875;35.940;126.892;2024-02-26T06:53:44;13.20;1.00
11639;DHT22;5875;35.940;126.892;2024-02-26T06:56:11;13.00;1.00
11639;DHT22;5875;35.940;126.892;2024-02-26T06:58:41;13.00;1.00
11639;DHT22;5875;35.940;126.892;2024-02-26T07:01:08;13.10;1.00
11639;DHT22;5875;35.940;126.892;2024-02-26T07:03:35;13.00;1.00
11639;DHT22;5875;35.940;126.892;2024-02-26T07:06:05;13.10;1.00
11639;DHT22;5875;35.940;126.892;2024-02-26T07:08:33;13.20;1.00
11639;DHT22;5875;35.940;126.892;2024-02-26T07:11:00;13.10;1.00
11639;DHT22;5875;35.940;126.892;2024-02-26T07:13:27;13.00;1.00
11639;DHT22;5875;35.940;126.892;2024-02-26T07:15:55;13.00;1.00
11639;DHT22;5875;35.940;126.892;2024-02-26T07:18:22;12.70;1.00
11639;DHT22;5875;35.940;126.892;2024-02-26T07:20:49;12.70;1.00
11639;DHT22;5875;35.940;126.892;2024-02-26T07:23:16;12.90;1.00
11639;DHT22;5875;35.940;126.892;2024-02-26T07:25:44;13.00;1.00
11639;DHT22;5875;35.940;126.892;2024-02-26T07:28:15;13.00;1.00
11639;DHT22;5875;35.940;126.892;2024-02-26T07:30:42;13.00;1.00
11639;DHT22;5875;35.940;126.892;2024-02-26T07:33:09;13.20;1.00
11639;DHT22;5875;35.940;126.892;2024-02-26T07:35:36;13.10;1.00
11639;DHT22;5875;35.940;126.892;2024-02-26T07:38:05;13.20;1.00
11639;DHT22;5875;35.940;126.892;2024-02-26T07:40:32;13.20;1.00
11639;DHT22;5875;35.940;126.892;2024-02-26T07:42:59;13.00;1.00
11639;DHT22;5875;35.940;126.892;2024-02-26T07:45:29;13.10;3.20
11639;DHT22;5875;35.940;126.892;2024-02-26T07:47:59;13.00;3.60
11639;DHT22;5875;35.940;126.892;2024-02-26T07:50:26;12.90;9.80
11639;DHT22;5875;35.940;126.892;2024-02-26T07:52:53;13.00;10.80
11639;DHT22;5875;35.940;126.892;2024-02-26T07:55:20;13.00;12.40
11639;DHT22;5875;35.940;126.892;2024-02-26T07:57:48;12.90;11.10
11639;DHT22;5875;35.940;126.892;2024-02-26T08:00:16;12.70;14.00
11639;DHT22;5875;35.940;126.892;2024-02-26T08:02:43;12.70;13.70
11639;DHT22;5875;35.940;126.892;2024-02-26T08:05:10;12.70;18.70
11639;DHT22;5875;35.940;126.892;2024-02-26T08:07:38;12.70;17.00
11639;DHT22;5875;35.940;126.892;2024-02-26T08:10:05;12.50;16.10
11639;DHT22;5875;35.940;126.892;2024-02-26T08:12:32;12.40;18.90
11639;DHT22;5875;35.940;126.892;2024-02-26T08:14:59;12.30;23.80
11639;DHT22;5875;35.940;126.892;2024-02-26T08:17:27;12.30;25.60
11639;DHT22;5875;35.940;126.892;2024-02-26T08:19:54;12.10;26.60
11639;DHT22;5875;35.940;126.892;2024-02-26T08:22:22;11.90;27.70
11639;DHT22;5875;35.940;126.892;2024-02-26T08:24:49;11.80;29.30
11639;DHT22;5875;35.940;126.892;2024-02-26T08:27:16;11.80;36.80
11639;DHT22;5875;35.940;126.892;2024-02-26T08:29:44;11.80;44.90
11639;DHT22;5875;35.940;126.892;2024-02-26T08:32:11;11.70;40.70
11639;DHT22;5875;35.940;126.892;2024-02-26T08:34:38;11.50;46.70
11639;DHT22;5875;35.940;126.892;2024-02-26T08:37:06;11.50;49.70
11639;DHT22;5875;35.940;126.892;2024-02-26T08:39:33;11.40;49.00
11639;DHT22;5875;35.940;126.892;2024-02-26T08:42:00;11.30;47.10
11639;DHT22;5875;35.940;126.892;2024-02-26T08:44:27;11.20;54.90
11639;DHT22;5875;35.940;126.892;2024-02-26T08:46:55;11.20;52.50
11639;DHT22;5875;35.940;126.892;2024-02-26T08:49:22;11.10;55.30
11639;DHT22;5875;35.940;126.892;2024-02-26T08:51:50;11.10;59.70
11639;DHT22;5875;35.940;126.892;2024-02-26T08:54:20;11.00;60.40
11639;DHT22;5875;35.940;126.892;2024-02-26T08:56:47;10.90;61.10
11639;DHT22;5875;35.940;126.892;2024-02-26T08:59:16;10.80;69.80
11639;DHT22;5875;35.940;126.892;2024-02-26T09:01:48;10.70;70.90
11639;DHT22;5875;35.940;126.892;2024-02-26T09:04:18;10.60;72.40
11639;DHT22;5875;35.940;126.892;2024-02-26T09:06:46;10.50;75.60
11639;DHT22;5875;35.940;126.892;2024-02-26T09:09:13;10.40;82.40
11639;DHT22;5875;35.940;126.892;2024-02-26T09:11:40;10.30;77.80
11639;DHT22;5875;35.940;126.892;2024-02-26T09:14:07;10.20;83.70
11639;DHT22;5875;35.940;126.892;2024-02-26T09:16:34;10.20;90.80
11639;DHT22;5875;35.940;126.892;2024-02-26T09:19:02;10.00;91.50
11639;DHT22;5875;35.940;126.892;2024-02-26T09:21:29;10.00;96.50
11639;DHT22;5875;35.940;126.892;2024-02-26T09:23:57;9.90;98.40
11639;DHT22;5875;35.940;126.892;2024-02-26T09:26:24;9.80;99.50
11639;DHT22;5875;35.940;126.892;2024-02-26T09:28:51;9.80;99.90
11639;DHT22;5875;35.940;126.892;2024-02-26T09:31:18;9.70;99.90
11639;DHT22;5875;35.940;126.892;2024-02-26T09:33:45;9.70;99.90
11639;DHT22;5875;35.940;126.892;2024-02-26T09:36:13;9.60;99.90
11639;DHT22;5875;35.940;126.892;2024-02-26T09:38:40;9.50;99.90
11639;DHT22;5875;35.940;126.892;2024-02-26T09:41:07;9.40;99.90
11639;DHT22;5875;35.940;126.892;2024-02-26T09:43:43;9.40;99.90
11639;DHT22;5875;35.940;126.892;2024-02-26T09:46:11;9.30;99.90
11639;DHT22;5875;35.940;126.892;2024-02-26T09:48:39;9.00;99.90
11639;DHT22;5875;35.940;126.892;2024-02-26T09:51:07;8.90;99.90
11639;DHT22;5875;35.940;126.892;2024-02-26T09:53:36;8.80;99.90
11639;DHT22;5875;35.940;126.892;2024-02-26T09:56:07;8.80;99.90
11639;DHT22;5875;35.940;126.892;2024-02-26T09:58:34;8.80;99.90
11639;DHT22;5875;35.940;126.892;2024-02-26T10:01:03;8.70;99.90
11639;DHT22;5875;35.940;126.892;2024-02-26T10:03:44;8.70;99.90
11639;DHT22;5875;35.940;126.892;2024-02-26T10:06:14;8.60;99.90
11639;DHT22;5875;35.940;126.892;2024-02-26T10:08:42;8.60;99.90
11639;DHT22;5875;35.940;126.892;2024-02-26T10:11:10;8.60;99.90
11639;DHT22;5875;35.940;126.892;2024-02-26T10:13:40;8.50;99.90
11639;DHT22;5875;35.940;126.892;2024-02-26T10:16:07;8.50;99.90
11639;DHT22;5875;35.940;126.892;2024-02-26T10:18:53;8.40;99.90
11639;DHT22;5875;35.940;126.892;2024-02-26T10:21:21;8.30;99.90
11639;DHT22;5875;35.940;126.892;2024-02-26T10:23:49;8.30;99.90
11639;DHT22;5875;35.940;126.892;2024-02-26T10:26:20;8.20;99.90
11639;DHT22;5875;35.940;126.892;2024-02-26T10:28:48;8.10;99.90
11639;DHT22;5875;35.940;126.892;2024-02-26T10:31:15;7.90;99.90
11639;DHT22;5875;35.940;126.892;2024-02-26T10:33:43;7.80;99.90
11639;DHT22;5875;35.940;126.892;2024-02-26T10:36:11;7.80;99.90
11639;DHT22;5875;35.940;126.892;2024-02-26T10:38:39;7.70;99.90
11639;DHT22;5875;35.940;126.892;2024-02-26T10:41:13;7.70;99.90
11639;DHT22;5875;35.940;126.892;2024-02-26T10:43:46;7.70;99.90
11639;DHT22;5875;35.940;126.892;2024-02-26T10:46:14;7.70;99.90
11639;DHT22;5875;35.940;126.892;2024-02-26T10:48:50;7.60;99.90
11639;DHT22;5875;35.940;126.892;2024-02-26T10:51:30;7.50;99.90
11639;DHT22;5875;35.940;126.892;2024-02-26T10:53:58;7.50;99.90
11639;DHT22;5875;35.940;126.892;2024-02-26T10:56:29;7.50;99.90
11639;DHT22;5875;35.940;126.892;2024-02-26T10:58:56;7.40;99.90
11639;DHT22;5875;35.940;126.892;2024-02-26T11:01:25;7.40;99.90
11639;DHT22;5875;35.940;126.892;2024-02-26T11:03:56;7.40;99.90
11639;DHT22;5875;35.940;126.892;2024-02-26T11:06:24;7.30;99.90
11639;DHT22;5875;35.940;126.892;2024-02-26T11:08:53;7.30;99.90
11639;DHT22;5875;35.940;126.892;2024-02-26T11:11:24;7.30;99.90
11639;DHT22;5875;35.940;126.892;2024-02-26T11:13:54;7.20;99.90
11639;DHT22;5875;35.940;126.892;2024-02-26T11:16:21;7.20;99.90
11639;DHT22;5875;35.940;126.892;2024-02-26T11:18:49;7.10;99.90
11639;DHT22;5875;35.940;126.892;2024-02-26T11:21:17;7.10;99.90
11639;DHT22;5875;35.940;126.892;2024-02-26T11:23:57;7.10;99.90
11639;DHT22;5875;35.940;126.892;2024-02-26T11:26:24;7.10;99.90
11639;DHT22;5875;35.940;126.892;2024-02-26T11:28:53;6.80;99.90
11639;DHT22;5875;35.940;126.892;2024-02-26T11:31:25;6.70;99.90
11639;DHT22;5875;35.940;126.892;2024-02-26T11:33:55;6.80;99.90
11639;DHT22;5875;35.940;126.892;2024-02-26T11:36:24;6.80;99.90
11639;DHT22;5875;35.940;126.892;2024-02-26T11:38:55;6.70;99.90
11639;DHT22;5875;35.940;126.892;2024-02-26T11:41:23;6.70;99.90
11639;DHT22;5875;35.940;126.892;2024-02-26T11:43:58;6.70;99.90
11639;DHT22;5875;35.940;126.892;2024-02-26T11:46:31;6.70;99.90
11639;DHT22;5875;35.940;126.892;2024-02-26T11:49:03;6.70;99.90
11639;DHT22;5875;35.940;126.892;2024-02-26T11:51:34;6.70;99.90
11639;DHT22;5875;35.940;126.892;2024-02-26T11:54:01;6.60;99.90
11639;DHT22;5875;35.940;126.892;2024-02-26T11:56:28;6.60;99.90
11639;DHT22;5875;35.940;126.892;2024-02-26T11:59:09;6.60;99.90
11639;DHT22;5875;35.940;126.892;2024-02-26T12:01:43;6.50;99.90
11639;DHT22;5875;35.940;126.892;2024-02-26T12:04:21;6.50;99.90
11639;DHT22;5875;35.940;126.892;2024-02-26T12:07:02;6.50;99.90
11639;DHT22;5875;35.940;126.892;2024-02-26T12:09:40;6.50;99.90
11639;DHT22;5875;35.940;126.892;2024-02-26T12:12:13;6.40;99.90
11639;DHT22;5875;35.940;126.892;2024-02-26T12:14:55;6.40;99.90
11639;DHT22;5875;35.940;126.892;2024-02-26T12:17:26;6.40;99.90
11639;DHT22;5875;35.940;126.892;2024-02-26T12:19:54;6.40;99.90
11639;DHT22;5875;35.940;126.892;2024-02-26T12:22:22;6.30;99.90
11639;DHT22;5875;35.940;126.892;2024-02-26T12:24:59;6.30;99.90
11639;DHT22;5875;35.940;126.892;2024-02-26T12:27:27;6.20;99.90
11639;DHT22;5875;35.940;126.892;2024-02-26T12:29:54;6.10;99.90
11639;DHT22;5875;35.940;126.892;2024-02-26T12:32:21;6.20;99.90
11639;DHT22;5875;35.940;126.892;2024-02-26T12:34:50;6.10;99.90
11639;DHT22;5875;35.940;126.892;2024-02-26T12:37:17;6.10;99.90
11639;DHT22;5875;35.940;126.892;2024-02-26T12:39:45;6.10;99.90
11639;DHT22;5875;35.940;126.892;2024-02-26T12:42:12;6.10;99.90
11639;DHT22;5875;35.940;126.892;2024-02-26T12:44:40;6.10;99.90
11639;DHT22;5875;35.940;126.892;2024-02-26T12:47:08;6.10;99.90
11639;DHT22;5875;35.940;126.892;2024-02-26T12:49:38;6.00;99.90
11639;DHT22;5875;35.940;126.892;2024-02-26T12:52:07;6.00;99.90
11639;DHT22;5875;35.940;126.892;2024-02-26T12:54:35;6.00;99.90
11639;DHT22;5875;35.940;126.892;2024-02-26T12:57:06;5.90;99.90
11639;DHT22;5875;35.940;126.892;2024-02-26T12:59:35;5.90;99.90
11639;DHT22;5875;35.940;126.892;2024-02-26T13:02:03;6.00;99.90
11639;DHT22;5875;35.940;126.892;2024-02-26T13:04:33;6.00;99.90
11639;DHT22;5875;35.940;126.892;2024-02-26T13:07:04;5.90;99.90
11639;DHT22;5875;35.940;126.892;2024-02-26T13:09:35;5.90;99.90
11639;DHT22;5875;35.940;126.892;2024-02-26T13:12:04;5.90;99.90
11639;DHT22;5875;35.940;126.892;2024-02-26T13:14:32;5.90;99.90
11639;DHT22;5875;35.940;126.892;2024-02-26T13:17:03;5.80;99.90
11639;DHT22;5875;35.940;126.892;2024-02-26T13:19:31;5.70;99.90
11639;DHT22;5875;35.940;126.892;2024-02-26T13:22:05;5.70;99.90
11639;DHT22;5875;35.940;126.892;2024-02-26T13:24:34;5.60;99.90
11639;DHT22;5875;35.940;126.892;2024-02-26T13:27:04;5.60;99.90
11639;DHT22;5875;35.940;126.892;2024-02-26T13:29:35;5.50;99.90
11639;DHT22;5875;35.940;126.892;2024-02-26T13:32:04;5.50;99.90
11639;DHT22;5875;35.940;126.892;2024-02-26T13:34:32;5.50;99.90
11639;DHT22;5875;35.940;126.892;2024-02-26T13:37:00;5.50;99.90
11639;DHT22;5875;35.940;126.892;2024-02-26T13:39:28;5.40;99.90
11639;DHT22;5875;35.940;126.892;2024-02-26T13:41:56;5.40;99.90
11639;DHT22;5875;35.940;126.892;2024-02-26T13:44:24;5.40;99.90
11639;DHT22;5875;35.940;126.892;2024-02-26T13:46:51;5.30;99.90
11639;DHT22;5875;35.940;126.892;2024-02-26T13:49:21;5.30;99.90
11639;DHT22;5875;35.940;126.892;2024-02-26T13:51:48;5.30;99.90
11639;DHT22;5875;35.940;126.892;2024-02-26T13:54:15;5.30;99.90
11639;DHT22;5875;35.940;126.892;2024-02-26T13:56:42;5.30;99.90
11639;DHT22;5875;35.940;126.892;2024-02-26T13:59:13;5.20;99.90
11639;DHT22;5875;35.940;126.892;2024-02-26T14:01:40;5.20;99.90
11639;DHT22;5875;35.940;126.892;2024-02-26T14:04:07;5.10;99.90
11639;DHT22;5875;35.940;126.892;2024-02-26T14:06:37;5.20;99.90
11639;DHT22;5875;35.940;126.892;2024-02-26T14:09:05;5.10;99.90
11639;DHT22;5875;35.940;126.892;2024-02-26T14:11:32;5.10;99.90
11639;DHT22;5875;35.940;126.892;2024-02-26T14:14:00;5.10;99.90
11639;DHT22;5875;35.940;126.892;2024-02-26T14:16:27;5.00;99.90
11639;DHT22;5875;35.940;126.892;2024-02-26T14:18:55;4.90;99.90
11639;DHT22;5875;35.940;126.892;2024-02-26T14:21:25;4.90;99.90
11639;DHT22;5875;35.940;126.892;2024-02-26T14:23:53;4.90;99.90
11639;DHT22;5875;35.940;126.892;2024-02-26T14:26:24;4.80;99.90
11639;DHT22;5875;35.940;126.892;2024-02-26T14:28:51;4.80;99.90
11639;DHT22;5875;35.940;126.892;2024-02-26T14:31:19;4.70;99.90
11639;DHT22;5875;35.940;126.892;2024-02-26T14:33:46;4.70;99.90
11639;DHT22;5875;35.940;126.892;2024-02-26T14:36:14;4.70;99.90
11639;DHT22;5875;35.940;126.892;2024-02-26T14:38:41;4.60;99.90
11639;DHT22;5875;35.940;126.892;2024-02-26T14:41:09;4.60;99.90
11639;DHT22;5875;35.940;126.892;2024-02-26T14:43:36;4.50;99.90
11639;DHT22;5875;35.940;126.892;2024-02-26T14:46:04;4.50;99.90
11639;DHT22;5875;35.940;126.892;2024-02-26T14:48:31;4.40;99.90
11639;DHT22;5875;35.940;126.892;2024-02-26T14:50:59;4.40;99.90
11639;DHT22;5875;35.940;126.892;2024-02-26T14:53:26;4.40;99.90
11639;DHT22;5875;35.940;126.892;2024-02-26T14:55:53;4.40;99.90
11639;DHT22;5875;35.940;126.892;2024-02-26T14:58:20;4.40;99.90
11639;DHT22;5875;35.940;126.892;2024-02-26T15:00:50;4.40;99.90
11639;DHT22;5875;35.940;126.892;2024-02-26T15:03:18;4.40;99.90
11639;DHT22;5875;35.940;126.892;2024-02-26T15:05:45;4.50;99.90
11639;DHT22;5875;35.940;126.892;2024-02-26T15:08:12;4.50;99.90
11639;DHT22;5875;35.940;126.892;2024-02-26T15:10:42;4.50;99.90
11639;DHT22;5875;35.940;126.892;2024-02-26T15:13:15;4.40;99.90
11639;DHT22;5875;35.940;126.892;2024-02-26T15:15:42;4.40;99.90
11639;DHT22;5875;35.940;126.892;2024-02-26T15:18:10;4.50;99.90
11639;DHT22;5875;35.940;126.892;2024-02-26T15:20:42;4.50;99.90
11639;DHT22;5875;35.940;126.892;2024-02-26T15:23:09;4.40;99.90
11639;DHT22;5875;35.940;126.892;2024-02-26T15:25:37;4.40;99.90
11639;DHT22;5875;35.940;126.892;2024-02-26T15:28:04;4.30;99.90
11639;DHT22;5875;35.940;126.892;2024-02-26T15:30:36;4.30;99.90
11639;DHT22;5875;35.940;126.892;2024-02-26T15:33:03;4.30;99.90
11639;DHT22;5875;35.940;126.892;2024-02-26T15:35:30;4.30;99.90